Huvudsida
METAR-TAF:

METAR-TAF

Flygplatser :

Le Luc, Frankrike

latitud: 43-23N, longitud: 006-23E, höjd: 80 m

Aktuellt väderrapport

Denna rapport gjordes för 11 minuter sedan, klockan 23:00 UTC
Vind 3 kt från ost/nordost, varierande mellan nord/nordost och sydost
Temperatur 6°C
Fuktighet 100%
Tryck 1003 hPa
Sikt 10 km eller mer
Få moln på en höjd av 1700 ft
Brutna moln på en höjd av 2900 ft
Brutna moln på en höjd av 3700 ft

METAR: LFMC 152300Z AUTO 06003KT 020V130 9999 FEW017 BKN029 BKN037 06/06 Q1003

Tid: 00:11 (23:11 UTC)


TAF: saknas

Aktuella väderrapporter och prognoser från 4000 flygplatser (METAR- och TAF-rapporter).

De tillgängliga stationerna syns som gula och röda prickar på kartan.

För musen över prickarna för att se namnen på stationerna.

Klicka sedan för att få väderrapporter och prognoser.

För att ändra kartan: Klicka på de gröna knapparna med ett svart kors på för att zooma in; den gröna knappen med ett streck på för att zooma ut; eller på de gröna pilarna för angränsande kartor.


METAR-TAF: